createdAt,value
2022-10-25T00:01:32.393Z,100.00
2022-10-25T00:04:00.581Z,100.00
2022-10-25T00:06:33.010Z,100.00
2022-10-25T00:09:04.810Z,100.00
2022-10-25T00:11:38.492Z,100.00
2022-10-25T00:14:08.087Z,100.00
2022-10-25T00:16:40.180Z,100.00
2022-10-25T00:19:08.988Z,100.00
2022-10-25T00:21:37.300Z,100.00
2022-10-25T00:24:06.755Z,100.00
2022-10-25T00:26:40.704Z,100.00
2022-10-25T00:29:09.098Z,100.00
2022-10-25T00:31:39.373Z,100.00
2022-10-25T00:34:08.045Z,100.00
2022-10-25T00:36:38.440Z,100.00
2022-10-25T00:39:06.985Z,100.00
2022-10-25T00:41:37.889Z,100.00
2022-10-25T00:44:43.106Z,100.00
2022-10-25T00:47:17.067Z,100.00
2022-10-25T00:49:45.574Z,100.00
2022-10-25T00:52:15.175Z,100.00
2022-10-25T00:54:46.926Z,100.00
2022-10-25T00:57:17.700Z,100.00
2022-10-25T00:59:48.534Z,100.00
2022-10-25T01:02:19.270Z,100.00
2022-10-25T01:04:47.591Z,100.00
2022-10-25T01:07:15.997Z,100.00
2022-10-25T01:09:44.327Z,100.00
2022-10-25T01:12:13.005Z,100.00
2022-10-25T01:14:44.159Z,100.00
2022-10-25T01:17:15.897Z,100.00
2022-10-25T01:20:05.601Z,100.00
2022-10-25T01:22:41.532Z,100.00
2022-10-25T01:25:45.027Z,100.00
2022-10-25T01:28:17.909Z,100.00
2022-10-25T01:31:13.660Z,100.00
2022-10-25T01:33:47.763Z,100.00
2022-10-25T01:36:21.014Z,100.00
2022-10-25T01:38:52.436Z,100.00
2022-10-25T01:41:28.739Z,100.00
2022-10-25T01:44:09.724Z,100.00
2022-10-25T01:46:45.650Z,100.00
2022-10-25T01:49:19.547Z,100.00
2022-10-25T01:51:47.615Z,100.00
2022-10-25T01:54:25.581Z,100.00
2022-10-25T01:57:04.999Z,100.00
2022-10-25T01:59:43.401Z,100.00
2022-10-25T02:02:21.043Z,100.00
2022-10-25T02:04:52.961Z,100.00
2022-10-25T02:07:26.473Z,100.00
2022-10-25T02:12:50.385Z,100.00
2022-10-25T02:15:22.566Z,100.00
2022-10-25T02:17:55.769Z,100.00
2022-10-25T02:20:24.791Z,100.00
2022-10-25T02:22:54.374Z,100.00
2022-10-25T02:25:26.210Z,100.00
2022-10-25T02:27:56.509Z,100.00
2022-10-25T02:30:25.218Z,100.00
2022-10-25T02:32:58.567Z,100.00
2022-10-25T02:35:27.122Z,100.00
2022-10-25T02:37:56.517Z,100.00
2022-10-25T02:40:25.266Z,100.00
2022-10-25T02:42:55.643Z,100.00
2022-10-25T02:45:24.327Z,100.00
2022-10-25T02:47:53.399Z,100.00
2022-10-25T02:50:25.403Z,100.00
2022-10-25T02:52:54.125Z,100.00
2022-10-25T02:55:23.284Z,100.00
2022-10-25T02:57:52.119Z,100.00
2022-10-25T03:00:20.297Z,100.00
2022-10-25T03:02:50.436Z,100.00
2022-10-25T03:05:18.493Z,100.00
2022-10-25T03:07:48.755Z,100.00
2022-10-25T03:10:16.890Z,100.00
2022-10-25T03:12:45.512Z,100.00
2022-10-25T03:15:13.951Z,100.00
2022-10-25T03:17:42.180Z,100.00
2022-10-25T03:20:12.252Z,100.00
2022-10-25T03:22:41.183Z,100.00
2022-10-25T03:25:12.052Z,100.00
2022-10-25T03:27:42.843Z,100.00
2022-10-25T03:30:14.057Z,100.00
2022-10-25T03:32:42.212Z,100.00
2022-10-25T03:35:10.703Z,100.00
2022-10-25T03:37:39.227Z,100.00
2022-10-25T03:40:11.795Z,100.00
2022-10-25T03:42:40.196Z,100.00
2022-10-25T03:45:08.606Z,100.00
2022-10-25T03:47:41.097Z,100.00
2022-10-25T03:50:12.716Z,100.00
2022-10-25T03:52:44.781Z,100.00
2022-10-25T03:55:15.922Z,100.00
2022-10-25T03:57:44.564Z,100.00
2022-10-25T04:00:14.013Z,100.00
2022-10-25T04:02:42.300Z,100.00
2022-10-25T04:05:11.846Z,100.00
2022-10-25T04:07:42.167Z,100.00
2022-10-25T04:10:10.745Z,100.00
2022-10-25T04:12:40.683Z,100.00
2022-10-25T04:15:10.345Z,100.00
2022-10-25T04:17:38.378Z,100.00
2022-10-25T04:20:08.927Z,100.00
2022-10-25T04:22:40.382Z,100.00
2022-10-25T04:25:09.526Z,100.00
2022-10-25T04:27:40.642Z,100.00
2022-10-25T04:30:09.671Z,100.00
2022-10-25T04:32:38.273Z,100.00
2022-10-25T04:35:08.734Z,98.09
2022-10-25T04:37:39.198Z,97.33
2022-10-25T04:40:10.925Z,96.07
2022-10-25T04:42:40.626Z,96.81
2022-10-25T04:45:12.749Z,96.86
2022-10-25T04:47:41.269Z,96.96
2022-10-25T04:50:10.025Z,96.50
2022-10-25T04:52:38.303Z,96.24
2022-10-25T04:55:06.783Z,94.83
2022-10-25T04:57:35.767Z,93.99
2022-10-25T05:00:06.191Z,91.67
2022-10-25T05:02:37.589Z,92.15
2022-10-25T05:05:08.784Z,90.50
2022-10-25T05:07:38.953Z,89.94
2022-10-25T05:10:07.709Z,89.57
2022-10-25T05:12:35.793Z,89.40
2022-10-25T05:15:06.001Z,89.40
2022-10-25T05:17:37.274Z,89.76
2022-10-25T05:20:06.550Z,89.46
2022-10-25T05:22:39.108Z,89.73
2022-10-25T05:25:11.490Z,89.67
2022-10-25T05:27:40.296Z,87.22
2022-10-25T05:30:12.136Z,87.59
2022-10-25T05:32:40.451Z,86.54
2022-10-25T05:35:09.828Z,86.62
2022-10-25T05:37:39.945Z,86.59
2022-10-25T05:40:12.513Z,85.21
2022-10-25T05:42:41.902Z,85.66
2022-10-25T05:45:12.882Z,86.74
2022-10-25T05:47:41.494Z,86.23
2022-10-25T05:50:13.227Z,85.96
2022-10-25T05:52:43.291Z,87.13
2022-10-25T05:55:11.413Z,85.85
2022-10-25T05:57:40.382Z,85.76
2022-10-25T06:00:10.329Z,85.07
2022-10-25T06:02:39.712Z,84.23
2022-10-25T06:05:09.532Z,84.14
2022-10-25T06:07:38.407Z,84.09
2022-10-25T06:10:10.628Z,84.35
2022-10-25T06:12:39.376Z,83.31
2022-10-25T06:15:09.158Z,84.84
2022-10-25T06:17:38.865Z,83.30
2022-10-25T06:20:09.357Z,83.65
2022-10-25T06:22:37.421Z,83.72
2022-10-25T06:25:08.601Z,83.92
2022-10-25T06:27:38.873Z,83.74
2022-10-25T06:30:08.467Z,84.71
2022-10-25T06:32:39.110Z,84.50
2022-10-25T06:35:09.504Z,84.02
2022-10-25T06:37:38.417Z,84.98
2022-10-25T06:40:09.273Z,83.86
2022-10-25T06:42:37.662Z,82.74
2022-10-25T06:45:06.785Z,81.35
2022-10-25T06:47:37.660Z,81.36
2022-10-25T06:50:09.793Z,81.24
2022-10-25T06:52:41.087Z,80.97
2022-10-25T06:55:09.548Z,80.12
2022-10-25T06:57:38.801Z,80.24
2022-10-25T07:00:09.052Z,80.14
2022-10-25T07:02:37.380Z,78.95
2022-10-25T07:05:07.168Z,78.71
2022-10-25T07:07:43.572Z,78.17
2022-10-25T07:10:11.663Z,77.61
2022-10-25T07:12:41.016Z,77.69
2022-10-25T07:15:10.459Z,77.71
2022-10-25T07:17:39.816Z,77.06
2022-10-25T07:20:10.492Z,76.44
2022-10-25T07:22:41.130Z,77.11
2022-10-25T07:25:10.306Z,76.02
2022-10-25T07:27:42.114Z,76.67
2022-10-25T07:30:11.555Z,76.68
2022-10-25T07:32:42.459Z,76.46
2022-10-25T07:35:10.935Z,76.81
2022-10-25T07:37:42.962Z,76.28
2022-10-25T07:40:12.269Z,75.90
2022-10-25T07:42:42.506Z,75.85
2022-10-25T07:45:10.765Z,74.44
2022-10-25T07:47:39.962Z,74.20
2022-10-25T07:50:08.981Z,74.45
2022-10-25T07:52:39.194Z,74.06
2022-10-25T07:55:12.001Z,74.17
2022-10-25T07:57:42.706Z,73.46
2022-10-25T08:00:14.778Z,73.06
2022-10-25T08:02:43.936Z,73.15
2022-10-25T08:05:12.664Z,72.78
2022-10-25T08:07:41.907Z,71.17
2022-10-25T08:10:13.775Z,71.48
2022-10-25T08:12:42.593Z,71.00
2022-10-25T08:15:11.585Z,71.38
2022-10-25T08:17:40.576Z,70.68
2022-10-25T08:20:10.411Z,69.94
2022-10-25T08:22:40.868Z,70.20
2022-10-25T08:25:11.785Z,70.38
2022-10-25T08:27:43.388Z,69.60
2022-10-25T08:30:14.629Z,69.66
2022-10-25T08:32:43.646Z,69.67
2022-10-25T08:35:11.681Z,69.67
2022-10-25T08:37:40.589Z,69.65
2022-10-25T08:40:19.951Z,68.61
2022-10-25T08:43:01.754Z,68.70
2022-10-25T08:45:36.974Z,68.29
2022-10-25T08:48:12.768Z,68.58
2022-10-25T08:50:43.825Z,67.70
2022-10-25T08:53:18.022Z,67.64
2022-10-25T08:56:11.666Z,67.72
2022-10-25T08:58:47.410Z,67.21
2022-10-25T09:01:19.892Z,67.01
2022-10-25T09:03:51.176Z,65.87
2022-10-25T09:06:26.357Z,65.05
2022-10-25T09:09:04.327Z,63.94
2022-10-25T09:11:47.726Z,62.85
2022-10-25T09:14:22.718Z,62.96
2022-10-25T09:16:54.094Z,62.82
2022-10-25T09:19:29.109Z,62.51
2022-10-25T09:22:03.566Z,62.36
2022-10-25T09:24:36.506Z,62.22
2022-10-25T09:27:16.038Z,61.50
2022-10-25T09:29:47.733Z,62.00
2022-10-25T09:32:22.609Z,61.81
2022-10-25T09:34:53.102Z,62.10
2022-10-25T09:37:27.536Z,61.65
2022-10-25T09:39:57.476Z,60.99
2022-10-25T09:42:34.219Z,60.98
2022-10-25T09:45:04.473Z,60.04
2022-10-25T09:47:38.936Z,59.97
2022-10-25T09:50:13.145Z,60.05
2022-10-25T09:52:44.211Z,59.58
2022-10-25T09:55:33.991Z,59.82
2022-10-25T09:58:06.719Z,60.28
2022-10-25T10:00:38.618Z,60.22
2022-10-25T10:03:11.561Z,59.98
2022-10-25T10:05:42.163Z,60.65
2022-10-25T10:08:10.619Z,59.65
2022-10-25T10:10:40.809Z,59.73
2022-10-25T10:13:18.805Z,59.81
2022-10-25T10:15:54.215Z,60.02
2022-10-25T10:18:47.596Z,59.92
2022-10-25T10:21:18.435Z,60.49
2022-10-25T10:23:51.920Z,60.64
2022-10-25T10:26:34.593Z,60.60
2022-10-25T10:29:15.406Z,60.82
2022-10-25T10:31:49.223Z,61.03
2022-10-25T10:34:26.552Z,60.55
2022-10-25T10:37:08.637Z,60.23
2022-10-25T10:39:36.845Z,60.40
2022-10-25T10:42:16.437Z,60.45
2022-10-25T10:45:02.148Z,59.99
2022-10-25T10:47:37.962Z,60.27
2022-10-25T10:50:13.299Z,60.16
2022-10-25T10:52:44.121Z,60.60
2022-10-25T10:55:29.144Z,60.27
2022-10-25T10:58:04.715Z,59.88
2022-10-25T11:00:35.266Z,59.62
2022-10-25T11:03:03.869Z,59.48
2022-10-25T11:05:35.274Z,59.53
2022-10-25T11:08:23.132Z,59.21
2022-10-25T11:10:51.363Z,59.06
2022-10-25T11:13:20.714Z,58.83
2022-10-25T11:16:17.866Z,58.39
2022-10-25T11:18:52.304Z,59.14
2022-10-25T11:21:33.355Z,58.78
2022-10-25T11:24:25.849Z,58.74
2022-10-25T11:26:59.562Z,59.04
2022-10-25T11:29:47.258Z,58.87
2022-10-25T11:35:10.687Z,57.78
2022-10-25T11:37:43.841Z,57.45
2022-10-25T11:40:16.703Z,57.24
2022-10-25T11:43:00.654Z,56.90
2022-10-25T11:45:37.418Z,56.86
2022-10-25T11:48:26.273Z,56.71
2022-10-25T11:51:00.264Z,57.19
2022-10-25T11:53:41.182Z,56.37
2022-10-25T11:56:19.855Z,56.90
2022-10-25T11:58:54.044Z,56.95
2022-10-25T12:01:36.424Z,57.10
2022-10-25T12:04:37.962Z,56.78
2022-10-25T12:07:12.943Z,56.60
2022-10-25T12:09:48.017Z,56.20
2022-10-25T12:12:20.819Z,56.03
2022-10-25T12:14:51.602Z,56.34
2022-10-25T12:17:24.977Z,55.85
2022-10-25T12:20:01.975Z,56.00
2022-10-25T12:22:37.938Z,56.32
2022-10-25T12:25:09.435Z,56.40
2022-10-25T12:27:37.934Z,56.25
2022-10-25T12:30:14.368Z,56.81
2022-10-25T12:32:45.382Z,56.81
2022-10-25T12:35:23.995Z,57.25
2022-10-25T12:37:57.962Z,56.85
2022-10-25T12:40:29.713Z,57.10
2022-10-25T12:43:02.631Z,57.16
2022-10-25T12:45:54.683Z,57.16
2022-10-25T12:48:55.178Z,57.24
2022-10-25T12:51:39.454Z,57.15
2022-10-25T12:54:20.750Z,57.50
2022-10-25T12:56:58.131Z,57.70
2022-10-25T12:59:39.274Z,58.19
2022-10-25T13:02:24.302Z,58.01
2022-10-25T13:05:25.147Z,57.95
2022-10-25T13:07:56.332Z,57.72
2022-10-25T13:13:03.181Z,56.94
2022-10-25T13:15:42.165Z,57.13
2022-10-25T13:18:27.212Z,57.14
2022-10-25T13:20:56.303Z,57.47
2022-10-25T13:24:00.664Z,57.44
2022-10-25T13:26:32.236Z,57.90
2022-10-25T13:29:05.797Z,57.78
2022-10-25T13:32:10.157Z,57.24
2022-10-25T13:34:41.037Z,57.85
2022-10-25T13:37:42.269Z,57.59
2022-10-25T13:40:26.221Z,57.29
2022-10-25T13:43:06.656Z,57.52
2022-10-25T13:45:41.984Z,57.32
2022-10-25T13:48:19.322Z,56.92
2022-10-25T13:50:55.542Z,57.35
2022-10-25T13:53:26.088Z,57.48
2022-10-25T13:56:04.398Z,56.53
2022-10-25T13:58:48.531Z,56.91
2022-10-25T14:01:55.847Z,56.92
2022-10-25T14:04:35.688Z,56.79
2022-10-25T14:07:41.584Z,56.88
2022-10-25T14:10:15.321Z,56.69
2022-10-25T14:12:49.569Z,56.83
2022-10-25T14:15:26.117Z,56.93
2022-10-25T14:17:55.834Z,56.97
2022-10-25T14:20:26.933Z,56.83
2022-10-25T14:23:00.374Z,56.45
2022-10-25T14:25:34.896Z,56.78
2022-10-25T14:28:16.551Z,57.18
2022-10-25T14:30:45.738Z,57.16
2022-10-25T14:33:36.645Z,56.79
2022-10-25T14:36:27.965Z,56.78
2022-10-25T14:38:59.880Z,57.37
2022-10-25T14:41:29.590Z,57.48
2022-10-25T14:44:02.404Z,57.49
2022-10-25T14:46:31.325Z,57.74
2022-10-25T14:49:02.084Z,58.00
2022-10-25T14:51:33.025Z,58.38
2022-10-25T14:54:06.829Z,57.63
2022-10-25T14:56:37.478Z,57.75
2022-10-25T14:59:18.197Z,57.89
2022-10-25T15:01:53.355Z,58.01
2022-10-25T15:04:27.412Z,58.17
2022-10-25T15:06:55.528Z,58.76
2022-10-25T15:12:18.359Z,57.81
2022-10-25T15:14:50.880Z,58.59
2022-10-25T15:17:25.766Z,59.13
2022-10-25T15:20:06.899Z,58.55
2022-10-25T15:22:43.758Z,58.50
2022-10-25T15:25:22.397Z,58.80
2022-10-25T15:27:54.629Z,58.65
2022-10-25T15:30:45.031Z,59.03
2022-10-25T15:33:15.585Z,59.27
2022-10-25T15:35:49.747Z,59.88
2022-10-25T15:38:18.555Z,59.94
2022-10-25T15:40:49.629Z,60.13
2022-10-25T15:43:17.669Z,60.27
2022-10-25T15:45:48.754Z,60.39
2022-10-25T15:48:18.281Z,60.68
2022-10-25T15:50:49.592Z,60.67
2022-10-25T15:53:17.854Z,61.38
2022-10-25T15:55:46.032Z,61.72
2022-10-25T15:58:15.244Z,61.65
2022-10-25T16:00:48.098Z,62.22
2022-10-25T16:03:21.570Z,62.67
2022-10-25T16:05:50.774Z,62.85
2022-10-25T16:08:19.460Z,63.23
2022-10-25T16:10:47.849Z,63.52
2022-10-25T16:13:19.000Z,63.81
2022-10-25T16:15:49.201Z,63.97
2022-10-25T16:18:20.363Z,64.45
2022-10-25T16:20:50.663Z,64.26
2022-10-25T16:23:26.146Z,64.58
2022-10-25T16:25:56.168Z,64.71
2022-10-25T16:28:26.796Z,65.50
2022-10-25T16:30:55.308Z,64.77
2022-10-25T16:33:25.924Z,64.83
2022-10-25T16:35:57.661Z,65.55
2022-10-25T16:38:26.469Z,66.26
2022-10-25T16:40:55.294Z,65.96
2022-10-25T16:43:23.574Z,66.56
2022-10-25T16:45:51.735Z,66.52
2022-10-25T16:48:23.369Z,66.60
2022-10-25T16:50:54.635Z,66.80
2022-10-25T16:53:26.439Z,67.35
2022-10-25T16:56:08.651Z,67.13
2022-10-25T16:58:39.413Z,67.66
2022-10-25T17:01:18.639Z,67.26
2022-10-25T17:03:49.966Z,68.19
2022-10-25T17:06:40.338Z,68.38
2022-10-25T17:09:25.185Z,69.09
2022-10-25T17:11:53.856Z,69.38
2022-10-25T17:14:23.091Z,69.65
2022-10-25T17:16:53.125Z,70.08
2022-10-25T17:19:24.505Z,70.68
2022-10-25T17:21:54.380Z,70.72
2022-10-25T17:24:25.754Z,70.37
2022-10-25T17:26:54.613Z,71.42
2022-10-25T17:29:23.892Z,71.71
2022-10-25T17:32:08.932Z,72.01
2022-10-25T17:34:41.012Z,70.90
2022-10-25T17:37:10.316Z,71.50
2022-10-25T17:39:46.745Z,72.12
2022-10-25T17:42:16.377Z,72.62
2022-10-25T17:44:46.185Z,72.91
2022-10-25T17:47:19.211Z,73.40
2022-10-25T17:49:48.573Z,73.79
2022-10-25T17:52:17.037Z,74.02
2022-10-25T17:54:50.572Z,73.48
2022-10-25T17:57:21.366Z,74.53
2022-10-25T17:59:53.840Z,74.49
2022-10-25T18:02:23.298Z,74.76
2022-10-25T18:05:18.804Z,75.48
2022-10-25T18:07:45.760Z,75.33
2022-10-25T18:10:19.036Z,75.45
2022-10-25T18:12:48.612Z,75.58
2022-10-25T18:15:19.974Z,75.58
2022-10-25T18:17:49.630Z,75.85
2022-10-25T18:20:22.293Z,76.12
2022-10-25T18:22:54.657Z,77.30
2022-10-25T18:25:37.429Z,77.63
2022-10-25T18:28:07.989Z,77.22
2022-10-25T18:30:43.069Z,78.00
2022-10-25T18:33:18.528Z,77.69
2022-10-25T18:35:53.253Z,78.35
2022-10-25T18:38:22.575Z,79.14
2022-10-25T18:40:53.876Z,79.44
2022-10-25T18:43:24.597Z,78.92
2022-10-25T18:45:58.617Z,79.38
2022-10-25T18:48:29.417Z,79.09
2022-10-25T18:50:59.913Z,79.84
2022-10-25T18:53:29.914Z,80.38
2022-10-25T18:56:03.226Z,80.33
2022-10-25T18:58:38.185Z,80.06
2022-10-25T19:01:13.851Z,80.73
2022-10-25T19:03:47.005Z,81.32
2022-10-25T19:06:19.757Z,80.89
2022-10-25T19:08:50.679Z,80.97
2022-10-25T19:11:24.773Z,80.96
2022-10-25T19:14:07.945Z,81.27
2022-10-25T19:16:42.024Z,82.27
2022-10-25T19:19:13.695Z,82.37
2022-10-25T19:21:44.844Z,82.19
2022-10-25T19:24:18.990Z,82.60
2022-10-25T19:26:59.626Z,83.32
2022-10-25T19:29:29.890Z,83.55
2022-10-25T19:32:01.505Z,83.47
2022-10-25T19:34:31.182Z,82.92
2022-10-25T19:37:05.020Z,83.83
2022-10-25T19:39:39.035Z,84.03
2022-10-25T19:42:16.992Z,84.53
2022-10-25T19:44:47.798Z,85.01
2022-10-25T19:47:20.433Z,85.09
2022-10-25T19:49:49.912Z,85.04
2022-10-25T19:52:23.140Z,85.42
2022-10-25T19:54:55.028Z,85.56
2022-10-25T19:57:31.948Z,85.73
2022-10-25T20:00:03.218Z,86.16
2022-10-25T20:02:44.510Z,86.12
2022-10-25T20:05:20.582Z,86.05
2022-10-25T20:07:51.691Z,86.88
2022-10-25T20:10:26.520Z,86.76
2022-10-25T20:13:04.907Z,86.15
2022-10-25T20:15:36.941Z,86.72
2022-10-25T20:18:08.751Z,86.78
2022-10-25T20:20:39.331Z,87.63
2022-10-25T20:23:09.719Z,87.49
2022-10-25T20:25:43.751Z,87.54
2022-10-25T20:28:21.615Z,87.87
2022-10-25T20:30:53.531Z,88.22
2022-10-25T20:33:23.831Z,88.63
2022-10-25T20:35:54.894Z,88.36
2022-10-25T20:38:26.162Z,88.57
2022-10-25T20:40:56.988Z,88.66
2022-10-25T20:43:39.047Z,89.79
2022-10-25T20:46:13.304Z,90.04
2022-10-25T20:48:53.592Z,89.53
2022-10-25T20:51:34.771Z,90.31
2022-10-25T20:54:09.467Z,90.78
2022-10-25T20:56:40.117Z,90.15
2022-10-25T20:59:22.049Z,90.31
2022-10-25T21:01:52.405Z,90.78
2022-10-25T21:04:42.366Z,90.26
2022-10-25T21:07:17.627Z,90.33
2022-10-25T21:09:52.308Z,89.46
2022-10-25T21:12:25.627Z,90.53
2022-10-25T21:14:55.316Z,89.83
2022-10-25T21:17:23.672Z,89.86
2022-10-25T21:19:54.067Z,90.46
2022-10-25T21:22:22.652Z,90.67
2022-10-25T21:24:51.902Z,90.93
2022-10-25T21:27:22.640Z,90.62
2022-10-25T21:29:51.671Z,89.27
2022-10-25T21:32:21.672Z,88.39
2022-10-25T21:34:52.855Z,88.58
2022-10-25T21:37:22.293Z,89.24
2022-10-25T21:39:51.736Z,88.94
2022-10-25T21:42:21.745Z,88.29
2022-10-25T21:44:49.956Z,89.37
2022-10-25T21:47:23.898Z,89.97
2022-10-25T21:49:57.370Z,90.00
2022-10-25T21:52:26.734Z,90.58
2022-10-25T21:54:58.197Z,90.91
2022-10-25T21:57:27.794Z,91.68
2022-10-25T21:59:59.821Z,90.84
2022-10-25T22:02:34.673Z,91.24
2022-10-25T22:05:08.149Z,92.00
2022-10-25T22:07:38.876Z,92.43
2022-10-25T22:10:10.401Z,92.42
2022-10-25T22:12:47.614Z,94.73
2022-10-25T22:15:16.914Z,93.82
2022-10-25T22:17:47.699Z,95.39
2022-10-25T22:20:19.889Z,95.92
2022-10-25T22:22:49.853Z,96.33
2022-10-25T22:25:18.357Z,97.03
2022-10-25T22:27:52.532Z,96.84
2022-10-25T22:30:20.771Z,97.45
2022-10-25T22:32:53.027Z,97.28
2022-10-25T22:35:21.771Z,96.92
2022-10-25T22:37:52.249Z,96.55
2022-10-25T22:40:20.486Z,97.04
2022-10-25T22:42:51.821Z,96.68
2022-10-25T22:45:20.152Z,96.17
2022-10-25T22:48:00.688Z,96.49
2022-10-25T22:50:31.928Z,96.71
2022-10-25T22:53:04.018Z,96.26
2022-10-25T22:55:35.187Z,96.07
2022-10-25T22:58:05.771Z,96.43
2022-10-25T23:00:37.146Z,97.23
2022-10-25T23:03:06.689Z,97.44
2022-10-25T23:05:38.325Z,98.03
2022-10-25T23:08:08.778Z,97.26
2022-10-25T23:10:39.459Z,97.56
2022-10-25T23:13:08.152Z,97.72
2022-10-25T23:15:39.940Z,96.93
2022-10-25T23:18:13.239Z,97.81
2022-10-25T23:20:55.576Z,98.43
2022-10-25T23:23:27.955Z,98.55
2022-10-25T23:26:01.140Z,98.03
2022-10-25T23:28:31.981Z,98.12
2022-10-25T23:31:06.295Z,97.93
2022-10-25T23:33:39.122Z,97.33
2022-10-25T23:36:10.240Z,97.24
2022-10-25T23:38:38.421Z,97.81
2022-10-25T23:41:07.301Z,98.18
2022-10-25T23:43:36.301Z,98.25
2022-10-25T23:46:06.157Z,100.00
2022-10-25T23:48:39.115Z,99.26
2022-10-25T23:51:10.543Z,100.00
2022-10-25T23:53:39.561Z,98.95
2022-10-25T23:56:11.294Z,98.78
2022-10-25T23:58:40.198Z,99.98
